Time;durP1;ratioP1;P1;durP2;ratioP2;P2;SDS_P1;SDS_P2;PMS_P1;PMS_P2;Temp;Humidity;BMP_temperature;BMP_pressure;BME280_temperature;BME280_humidity;BME280_pressure;Samples;Min_cycle;Max_cycle;Signal;HPM_P1;HPM_P2
2023/11/25 00:02:10;;;;;;;4.32;1.40;;;5.00;88.60;;;;;;9174908;19;20015;-69
2023/11/25 00:05:19;;;;;;;8.20;1.33;;;5.10;88.90;;;;;;9174971;19;20826;-68
2023/11/25 00:08:28;;;;;;;3.00;1.50;;;4.90;88.80;;;;;;9173499;19;20032;-71
2023/11/25 00:11:33;;;;;;;4.70;1.20;;;5.00;89.00;;;;;;9173905;19;20019;-72
2023/11/25 00:14:43;;;;;;;6.22;1.67;;;4.90;88.90;;;;;;9174558;19;20021;-72
2023/11/25 00:17:49;;;;;;;5.80;1.30;;;4.90;89.50;;;;;;9174291;19;20023;-73
2023/11/25 00:21:00;;;;;;;3.58;1.42;;;4.80;87.40;;;;;;9173834;19;20026;-73
2023/11/25 00:24:07;;;;;;;3.50;1.00;;;4.80;87.70;;;;;;9171365;19;20025;-73
2023/11/25 00:27:15;;;;;;;6.13;1.40;;;4.70;87.60;;;;;;9175374;19;20026;-72
2023/11/25 00:30:21;;;;;;;7.72;1.48;;;4.80;87.70;;;;;;9171752;19;20219;-73
2023/11/25 00:33:29;;;;;;;6.82;1.40;;;4.80;87.70;;;;;;9173432;19;20014;-72
2023/11/25 00:36:37;;;;;;;2.80;1.50;;;4.80;88.20;;;;;;9172356;19;20015;-73
2023/11/25 00:39:44;;;;;;;3.78;1.55;;;4.80;89.30;;;;;;9174029;19;20357;-73
2023/11/25 00:42:50;;;;;;;7.25;0.88;;;4.80;90.00;;;;;;9166691;19;20407;-73
2023/11/25 00:45:57;;;;;;;1.52;1.10;;;4.60;86.30;;;;;;9173895;19;20029;-72
2023/11/25 00:49:04;;;;;;;5.03;1.90;;;4.50;86.40;;;;;;9171296;19;20021;-72
2023/11/25 00:52:14;;;;;;;4.68;1.13;;;4.50;86.30;;;;;;9173502;19;20022;-73
2023/11/25 00:55:20;;;;;;;3.88;1.20;;;4.50;86.40;;;;;;9172184;19;20025;-73
2023/11/25 00:58:28;;;;;;;4.50;1.25;;;4.40;86.50;;;;;;9172929;19;20024;-72
2023/11/25 01:01:33;;;;;;;8.55;2.08;;;4.40;86.50;;;;;;9173333;19;20026;-73
2023/11/25 01:04:43;;;;;;;9.45;1.55;;;4.40;86.60;;;;;;9168127;19;20498;-73
2023/11/25 01:07:51;;;;;;;7.10;1.38;;;4.40;86.60;;;;;;9171508;19;20044;-71
2023/11/25 01:10:59;;;;;;;5.25;2.08;;;4.30;86.70;;;;;;9172205;19;20038;-71
2023/11/25 01:14:05;;;;;;;7.20;1.83;;;4.30;86.70;;;;;;9170555;19;20056;-74
2023/11/25 01:17:13;;;;;;;9.40;1.50;;;4.20;86.60;;;;;;9172258;19;20015;-72
2023/11/25 01:20:18;;;;;;;7.85;1.45;;;4.20;87.00;;;;;;9170425;19;20035;-73
2023/11/25 01:23:29;;;;;;;4.85;1.70;;;4.20;87.10;;;;;;9172067;19;20074;-69
2023/11/25 01:26:34;;;;;;;8.60;1.45;;;4.20;87.00;;;;;;9172750;19;20018;-69
2023/11/25 01:29:42;;;;;;;13.00;1.55;;;4.10;87.20;;;;;;9167836;19;20741;-69
2023/11/25 01:32:47;;;;;;;13.55;1.90;;;4.10;87.40;;;;;;9169339;19;20010;-69
2023/11/25 01:35:55;;;;;;;8.70;1.70;;;4.10;88.00;;;;;;9171918;19;20014;-67
2023/11/25 01:39:05;;;;;;;9.80;1.83;;;4.00;88.00;;;;;;9171427;19;20022;-68
2023/11/25 01:42:12;;;;;;;12.95;1.80;;;4.10;87.90;;;;;;9170598;19;20074;-67
2023/11/25 01:45:18;;;;;;;9.77;2.78;;;4.00;88.10;;;;;;9164681;19;20015;-68
2023/11/25 01:48:26;;;;;;;17.45;2.25;;;4.00;88.90;;;;;;9169246;19;20015;-68
2023/11/25 01:51:32;;;;;;;8.07;1.88;;;4.00;89.20;;;;;;9169288;19;20019;-69
2023/11/25 01:54:42;;;;;;;13.38;4.07;;;3.90;90.00;;;;;;9170736;19;20018;-67
2023/11/25 01:57:48;;;;;;;11.13;2.40;;;4.00;90.70;;;;;;9170834;19;20011;-67
2023/11/25 02:00:56;;;;;;;13.30;2.22;;;4.10;92.20;;;;;;9170282;19;20010;-67
2023/11/25 02:04:02;;;;;;;13.60;2.15;;;4.00;90.60;;;;;;9174565;19;20480;-67
2023/11/25 02:07:12;;;;;;;16.10;2.05;;;4.00;90.70;;;;;;9180051;19;20677;-67
2023/11/25 02:10:21;;;;;;;22.60;2.60;;;3.90;91.20;;;;;;9177987;19;20014;-70
2023/11/25 02:13:29;;;;;;;19.23;2.85;;;3.90;92.00;;;;;;9178411;19;20086;-68
2023/11/25 02:16:34;;;;;;;20.27;2.45;;;4.00;91.30;;;;;;9177309;19;20015;-68
2023/11/25 02:19:45;;;;;;;11.82;1.95;;;3.90;91.80;;;;;;9177245;19;20029;-68
2023/11/25 02:22:58;;;;;;;13.75;2.05;;;3.90;91.60;;;;;;9176324;19;20010;-70
2023/11/25 02:26:08;;;;;;;17.23;2.58;;;3.40;91.70;;;;;;9178712;19;20141;-67
2023/11/25 02:29:13;;;;;;;11.93;1.80;;;3.90;91.80;;;;;;9177590;19;20084;-69
2023/11/25 02:32:21;;;;;;;20.85;2.38;;;3.90;91.00;;;;;;9176694;19;20090;-67
2023/11/25 02:35:26;;;;;;;11.32;2.95;;;4.00;91.90;;;;;;9178035;19;20018;-69
2023/11/25 02:38:37;;;;;;;17.85;2.05;;;4.00;91.50;;;;;;9176593;19;20014;-69
2023/11/25 02:41:43;;;;;;;14.68;1.85;;;4.00;92.20;;;;;;9177788;19;20022;-68
2023/11/25 02:44:50;;;;;;;16.98;2.63;;;4.00;91.20;;;;;;9173975;19;20371;-67
2023/11/25 02:48:00;;;;;;;15.70;2.00;;;4.20;91.20;;;;;;9173710;19;20064;-66
2023/11/25 02:51:10;;;;;;;13.48;1.73;;;4.00;91.10;;;;;;9174693;19;20022;-69
2023/11/25 02:54:18;;;;;;;13.05;2.67;;;4.10;91.20;;;;;;9175634;19;20014;-71
2023/11/25 02:57:27;;;;;;;15.70;2.13;;;4.20;91.40;;;;;;9178102;19;20018;-69
2023/11/25 03:00:36;;;;;;;16.92;2.35;;;4.20;92.00;;;;;;9177106;19;20061;-68
2023/11/25 03:03:48;;;;;;;13.45;2.28;;;4.10;91.90;;;;;;9175246;19;20025;-67
2023/11/25 03:06:54;;;;;;;19.15;1.73;;;4.20;90.60;;;;;;9176900;19;20020;-67
2023/11/25 03:10:04;;;;;;;14.43;2.67;;;4.20;90.50;;;;;;9174298;19;20023;-68
2023/11/25 03:13:10;;;;;;;16.23;1.95;;;4.20;90.50;;;;;;9175127;19;20462;-67
2023/11/25 03:16:24;;;;;;;12.95;1.73;;;4.20;90.60;;;;;;9176093;19;20021;-67
2023/11/25 03:19:30;;;;;;;14.68;3.20;;;4.20;90.90;;;;;;9172556;19;20014;-67
2023/11/25 03:22:38;;;;;;;18.08;2.85;;;4.20;91.10;;;;;;9175648;19;20026;-67
2023/11/25 03:25:47;;;;;;;22.48;2.00;;;4.30;91.70;;;;;;9175550;19;20388;-69
2023/11/25 03:28:55;;;;;;;22.08;1.98;;;4.30;90.20;;;;;;9174945;19;20015;-68
2023/11/25 03:32:00;;;;;;;14.65;1.95;;;4.20;90.20;;;;;;9173765;19;20362;-67
2023/11/25 03:35:09;;;;;;;9.35;2.05;;;4.20;89.90;;;;;;9176240;19;20384;-67
2023/11/25 03:38:15;;;;;;;12.93;2.00;;;4.20;90.00;;;;;;9174479;19;20101;-68
2023/11/25 03:41:26;;;;;;;17.30;2.28;;;4.40;90.00;;;;;;9173224;19;20024;-68
2023/11/25 03:44:32;;;;;;;18.50;2.42;;;4.20;89.90;;;;;;9169036;19;20346;-71
2023/11/25 03:47:39;;;;;;;8.68;2.22;;;4.30;90.10;;;;;;9175844;19;20021;-72
2023/11/25 03:50:45;;;;;;;15.75;1.75;;;4.30;90.40;;;;;;9173730;19;20010;-71
2023/11/25 03:53:52;;;;;;;12.23;2.08;;;4.20;90.30;;;;;;9175090;19;20038;-71
2023/11/25 03:57:00;;;;;;;9.63;1.42;;;4.30;90.80;;;;;;9175282;19;20098;-70
2023/11/25 04:00:14;;;;;;;15.15;1.90;;;4.30;91.40;;;;;;9175734;19;20025;-70
2023/11/25 04:03:20;;;;;;;11.88;2.10;;;4.30;91.30;;;;;;9171413;19;20014;-71
2023/11/25 04:06:28;;;;;;;11.00;1.88;;;4.30;91.00;;;;;;9174491;19;20369;-69
2023/11/25 04:09:33;;;;;;;15.15;1.63;;;4.20;90.20;;;;;;9174551;19;20636;-71
2023/11/25 04:12:45;;;;;;;15.15;2.35;;;4.30;90.40;;;;;;9174292;19;20022;-71
2023/11/25 04:15:51;;;;;;;24.02;2.63;;;4.20;90.40;;;;;;9174865;19;20011;-70
2023/11/25 04:18:59;;;;;;;18.52;2.60;;;4.20;90.50;;;;;;9174395;19;20341;-70
2023/11/25 04:22:05;;;;;;;7.97;1.65;;;4.20;90.40;;;;;;9172256;19;20568;-70
2023/11/25 04:25:12;;;;;;;21.58;3.20;;;4.10;90.40;;;;;;9171409;19;20502;-70
2023/11/25 04:28:21;;;;;;;11.85;2.40;;;4.20;90.50;;;;;;9173652;19;20018;-70
2023/11/25 04:31:29;;;;;;;18.13;3.05;;;4.20;90.50;;;;;;9172226;19;20018;-70
2023/11/25 04:34:34;;;;;;;17.35;2.25;;;4.10;90.80;;;;;;9174272;19;20019;-70
2023/11/25 04:37:46;;;;;;;25.85;1.80;;;4.10;90.70;;;;;;9173761;19;20030;-69
2023/11/25 04:40:51;;;;;;;16.75;2.25;;;4.20;90.80;;;;;;9172596;19;20821;-69
2023/11/25 04:44:02;;;;;;;15.10;2.75;;;4.20;91.20;;;;;;9169402;19;20018;-70
2023/11/25 04:47:08;;;;;;;10.15;1.55;;;4.20;91.20;;;;;;9173170;19;20078;-70
2023/11/25 04:50:16;;;;;;;10.43;1.83;;;4.20;91.40;;;;;;9172150;19;20356;-70
2023/11/25 04:53:22;;;;;;;12.70;2.35;;;4.20;91.00;;;;;;9172152;19;20074;-67
2023/11/25 04:56:30;;;;;;;16.65;2.30;;;4.20;90.90;;;;;;9170516;19;20380;-69
2023/11/25 04:59:39;;;;;;;7.25;1.55;;;4.30;91.80;;;;;;9173048;19;20051;-68
2023/11/25 05:02:47;;;;;;;5.93;0.88;;;4.30;91.90;;;;;;9172124;19;20030;-68
2023/11/25 05:05:52;;;;;;;15.00;2.90;;;4.30;92.00;;;;;;9170836;19;20015;-68
2023/11/25 05:09:00;;;;;;;3.53;1.33;;;4.40;91.60;;;;;;9172828;19;20018;-68
2023/11/25 05:12:06;;;;;;;11.88;1.60;;;4.40;91.90;;;;;;9171113;19;20060;-70
2023/11/25 05:15:16;;;;;;;9.05;0.85;;;4.70;93.60;;;;;;9172708;19;20026;-68
2023/11/25 05:18:22;;;;;;;7.55;1.00;;;4.60;92.70;;;;;;9172144;19;20010;-69
2023/11/25 05:21:29;;;;;;;4.40;0.80;;;4.60;91.30;;;;;;9171392;19;20026;-70
2023/11/25 05:24:35;;;;;;;6.38;0.90;;;4.70;91.30;;;;;;9171513;19;20044;-70
2023/11/25 05:27:42;;;;;;;5.07;0.90;;;4.60;90.20;;;;;;9170836;19;20018;-69
2023/11/25 05:30:51;;;;;;;4.80;0.80;;;4.60;90.60;;;;;;9170995;19;20039;-68
2023/11/25 05:33:58;;;;;;;4.57;0.93;;;3.80;94.00;;;;;;9170818;19;20022;-71
2023/11/25 05:37:03;;;;;;;3.42;0.60;;;4.80;91.30;;;;;;9171778;19;20145;-68
2023/11/25 05:40:13;;;;;;;3.10;0.40;;;4.80;91.30;;;;;;9180761;19;20018;-69
2023/11/25 05:43:21;;;;;;;3.08;0.43;;;4.80;91.30;;;;;;9176549;19;20042;-71
2023/11/25 05:46:31;;;;;;;2.35;1.00;;;4.90;91.30;;;;;;9179960;19;20018;-70
2023/11/25 05:49:37;;;;;;;0.25;0.25;;;4.90;91.50;;;;;;9179898;19;20018;-68
2023/11/25 05:52:44;;;;;;;2.88;1.05;;;4.80;91.40;;;;;;9177198;19;20030;-70
2023/11/25 05:55:50;;;;;;;3.20;0.47;;;4.90;91.50;;;;;;9180648;19;20085;-68
2023/11/25 05:58:58;;;;;;;2.03;0.85;;;4.90;91.70;;;;;;9179314;19;20010;-70
2023/11/25 06:02:06;;;;;;;4.00;0.63;;;5.00;92.20;;;;;;9177111;19;20060;-68
2023/11/25 06:05:15;;;;;;;4.53;0.45;;;4.90;92.60;;;;;;9180088;19;20022;-69
2023/11/25 06:08:20;;;;;;;3.63;0.40;;;4.90;91.90;;;;;;9179792;19;20077;-67
2023/11/25 06:11:32;;;;;;;2.33;0.60;;;5.00;91.50;;;;;;9178914;19;20015;-65
2023/11/25 06:14:38;;;;;;;3.17;0.73;;;4.90;92.10;;;;;;9178523;19;20021;-68
2023/11/25 06:17:50;;;;;;;2.10;0.50;;;4.90;90.10;;;;;;9178512;19;20014;-68
2023/11/25 06:20:56;;;;;;;0.60;0.60;;;4.90;90.10;;;;;;9178531;19;20475;-67
2023/11/25 06:24:04;;;;;;;1.27;0.52;;;4.90;90.40;;;;;;9177223;19;20691;-68
2023/11/25 06:27:10;;;;;;;5.10;0.57;;;4.90;90.50;;;;;;9178858;19;20022;-66
2023/11/25 06:30:17;;;;;;;5.53;0.68;;;4.90;90.50;;;;;;9178790;19;20531;-69
2023/11/25 06:33:29;;;;;;;9.40;1.25;;;4.90;90.60;;;;;;9174627;19;20022;-69
2023/11/25 06:36:36;;;;;;;6.20;0.83;;;4.90;90.80;;;;;;9178326;19;20018;-69
2023/11/25 06:39:42;;;;;;;10.13;0.80;;;4.90;92.00;;;;;;9178269;19;20729;-70
2023/11/25 06:42:49;;;;;;;4.93;1.02;;;4.90;91.30;;;;;;9174226;19;20589;-70
2023/11/25 06:45:55;;;;;;;3.97;0.85;;;5.00;91.00;;;;;;9176748;19;20762;-70
2023/11/25 06:49:06;;;;;;;10.00;1.20;;;5.00;90.60;;;;;;9177061;19;20361;-71
2023/11/25 06:52:13;;;;;;;6.28;0.85;;;5.00;90.70;;;;;;9176595;19;20006;-69
2023/11/25 06:55:21;;;;;;;7.22;1.08;;;5.00;90.70;;;;;;9177385;19;20452;-71
2023/11/25 06:58:27;;;;;;;8.75;1.10;;;5.10;90.70;;;;;;9176571;19;20110;-71
2023/11/25 07:01:35;;;;;;;10.57;0.93;;;5.10;90.60;;;;;;9174512;19;20029;-72
2023/11/25 07:04:43;;;;;;;8.00;1.00;;;5.10;90.70;;;;;;9174734;19;20040;-72
2023/11/25 07:07:52;;;;;;;3.30;0.68;;;5.10;90.60;;;;;;9177795;19;20026;-72
2023/11/25 07:10:59;;;;;;;7.60;1.15;;;5.20;90.70;;;;;;9177489;19;20667;-69
2023/11/25 07:14:08;;;;;;;2.22;0.77;;;5.10;90.70;;;;;;9174417;19;20010;-71
2023/11/25 07:17:14;;;;;;;3.35;0.70;;;5.10;90.90;;;;;;9176889;19;20014;-69
2023/11/25 07:20:24;;;;;;;11.93;1.08;;;5.00;90.90;;;;;;9172653;19;20018;-72
2023/11/25 07:23:34;;;;;;;13.00;2.35;;;5.20;90.80;;;;;;9176183;19;20014;-71
2023/11/25 07:26:51;;;;;;;5.15;0.80;;;5.20;91.40;;;;;;9175014;19;20554;-71
2023/11/25 07:30:00;;;;;;;6.32;1.55;;;5.20;90.60;;;;;;9174917;19;20353;-71
2023/11/25 07:33:09;;;;;;;9.30;1.00;;;5.30;90.30;;;;;;9172135;19;20025;-72
2023/11/25 07:36:18;;;;;;;3.97;1.17;;;5.20;90.40;;;;;;9175586;19;20045;-71
2023/11/25 07:39:29;;;;;;;1.27;0.70;;;5.20;90.40;;;;;;9175505;19;20034;-70
2023/11/25 07:42:35;;;;;;;8.65;1.08;;;5.10;90.50;;;;;;9175043;19;20026;-70
2023/11/25 07:45:44;;;;;;;8.05;0.80;;;5.20;91.10;;;;;;9171439;19;20038;-72
2023/11/25 07:48:49;;;;;;;10.10;1.33;;;5.20;90.10;;;;;;9176570;19;20090;-70
2023/11/25 07:52:00;;;;;;;2.25;0.63;;;5.20;90.00;;;;;;9174871;19;20033;-71
2023/11/25 07:55:07;;;;;;;5.57;1.10;;;5.10;90.20;;;;;;9174921;19;20019;-69
2023/11/25 07:58:15;;;;;;;7.00;0.90;;;5.10;90.10;;;;;;9175357;19;20033;-70
2023/11/25 08:01:20;;;;;;;11.18;1.33;;;5.10;90.20;;;;;;9172992;19;20600;-70
2023/11/25 08:04:28;;;;;;;9.25;1.67;;;5.20;90.50;;;;;;9172236;19;20030;-70
2023/11/25 08:07:36;;;;;;;4.88;1.02;;;5.20;90.60;;;;;;9175408;19;20014;-71
2023/11/25 08:10:44;;;;;;;3.58;1.42;;;5.20;90.50;;;;;;9174378;19;20022;-72
2023/11/25 08:13:49;;;;;;;8.60;1.77;;;5.20;91.20;;;;;;9172842;19;20043;-72
2023/11/25 08:16:57;;;;;;;4.28;1.10;;;5.20;90.80;;;;;;9174946;19;20019;-70
2023/11/25 08:20:03;;;;;;;4.03;1.20;;;5.20;90.40;;;;;;9173721;19;20052;-68
2023/11/25 08:23:13;;;;;;;6.00;1.83;;;5.40;90.60;;;;;;9173596;19;20021;-74
2023/11/25 08:26:22;;;;;;;12.90;1.35;;;5.20;90.40;;;;;;9172101;19;20449;-71
2023/11/25 08:29:29;;;;;;;4.65;1.50;;;5.30;90.70;;;;;;9173163;19;20018;-74
2023/11/25 08:32:34;;;;;;;7.55;1.15;;;5.40;90.90;;;;;;9172121;19;20838;-74
2023/11/25 08:35:42;;;;;;;7.10;1.52;;;5.30;91.50;;;;;;9174020;19;20029;-73
2023/11/25 08:38:56;;;;;;;3.42;0.82;;;5.40;92.40;;;;;;9169721;19;20090;-74
2023/11/25 08:42:03;;;;;;;3.70;0.75;;;5.60;92.20;;;;;;9170553;19;20011;-74
2023/11/25 08:45:10;;;;;;;5.90;1.30;;;5.40;92.10;;;;;;9167903;19;20056;-74
2023/11/25 08:48:17;;;;;;;6.40;1.17;;;5.50;92.70;;;;;;9173264;19;20018;-73
2023/11/25 08:51:24;;;;;;;14.63;2.17;;;5.50;90.80;;;;;;9172802;19;20475;-74
2023/11/25 08:54:36;;;;;;;10.02;1.52;;;5.50;91.30;;;;;;9170714;19;20014;-75
2023/11/25 08:57:42;;;;;;;11.85;2.70;;;5.60;92.00;;;;;;9170706;19;20479;-75
2023/11/25 09:00:51;;;;;;;7.40;2.13;;;5.70;91.30;;;;;;9170556;19;20014;-74
2023/11/25 09:03:57;;;;;;;9.32;2.05;;;5.70;90.90;;;;;;9170829;19;20017;-75
2023/11/25 09:07:07;;;;;;;13.65;2.00;;;5.80;91.00;;;;;;9172683;19;20007;-75
2023/11/25 09:10:15;;;;;;;6.57;1.25;;;5.70;90.60;;;;;;9171873;19;20017;-75
2023/11/25 09:13:23;;;;;;;7.20;1.48;;;5.80;90.90;;;;;;9175059;19;20356;-74
2023/11/25 09:16:29;;;;;;;10.00;1.65;;;5.80;90.80;;;;;;9175651;19;20018;-72
2023/11/25 09:19:36;;;;;;;6.53;1.55;;;5.90;91.00;;;;;;9176692;19;20010;-73
2023/11/25 09:22:42;;;;;;;11.57;1.23;;;6.00;91.20;;;;;;9178581;19;20054;-76
2023/11/25 09:25:52;;;;;;;20.08;2.25;;;6.00;91.20;;;;;;9181640;19;20019;-73
2023/11/25 09:28:58;;;;;;;5.43;1.08;;;6.10;91.40;;;;;;9179663;19;20014;-73
2023/11/25 09:32:07;;;;;;;8.18;1.35;;;6.40;92.40;;;;;;9178201;19;20010;-72
2023/11/25 09:35:14;;;;;;;10.55;1.40;;;6.10;91.40;;;;;;9175525;19;20022;-72
2023/11/25 09:38:22;;;;;;;10.75;1.40;;;6.20;91.60;;;;;;9179303;19;20025;-74
2023/11/25 09:41:30;;;;;;;6.10;1.50;;;6.30;92.80;;;;;;9179846;19;20014;-73
2023/11/25 09:44:38;;;;;;;7.47;1.65;;;6.30;90.50;;;;;;9176305;19;20499;-73
2023/11/25 09:47:45;;;;;;;13.65;1.60;;;6.30;90.20;;;;;;9179886;19;20487;-73
2023/11/25 09:50:55;;;;;;;13.32;1.58;;;6.40;90.50;;;;;;9179863;19;20023;-74
2023/11/25 09:54:07;;;;;;;7.10;1.55;;;6.40;90.50;;;;;;9178599;19;20078;-72
2023/11/25 09:57:21;;;;;;;18.08;1.60;;;6.50;90.40;;;;;;9177511;19;20038;-74
2023/11/25 10:00:28;;;;;;;10.93;1.45;;;6.50;90.20;;;;;;9180261;19;20011;-74
2023/11/25 10:03:37;;;;;;;5.65;1.10;;;6.60;90.40;;;;;;9174736;19;20420;-73
2023/11/25 10:06:45;;;;;;;13.63;1.83;;;6.60;90.40;;;;;;9177785;19;20018;-73
2023/11/25 10:09:53;;;;;;;7.80;1.65;;;6.60;90.30;;;;;;9177977;19;20014;-74
2023/11/25 10:13:03;;;;;;;8.20;1.27;;;6.70;90.60;;;;;;9175896;19;20011;-74
2023/11/25 10:16:13;;;;;;;18.92;2.58;;;6.70;90.30;;;;;;9176745;19;20026;-74
2023/11/25 10:19:23;;;;;;;13.48;2.17;;;6.80;90.70;;;;;;9176124;19;20600;-73
2023/11/25 10:22:30;;;;;;;11.32;1.83;;;6.80;90.60;;;;;;9178274;19;20538;-73
2023/11/25 10:25:36;;;;;;;5.97;1.90;;;6.80;90.40;;;;;;9178247;19;20022;-72
2023/11/25 10:28:48;;;;;;;6.65;2.65;;;6.80;90.40;;;;;;9177930;19;20735;-73
2023/11/25 10:32:00;;;;;;;11.15;2.45;;;7.00;90.80;;;;;;9177071;19;20015;-73
2023/11/25 10:35:14;;;;;;;;;;;7.00;91.00;;;;;;9178120;19;20022;-76
2023/11/25 10:38:22;;;;;;;10.77;1.92;;;7.10;92.20;;;;;;9179623;19;20306;-74
2023/11/25 10:41:31;;;;;;;9.73;2.22;;;7.10;92.40;;;;;;9176527;19;20026;-72
2023/11/25 10:44:39;;;;;;;13.80;2.95;;;7.10;90.70;;;;;;9171728;19;20025;-70
2023/11/25 10:47:47;;;;;;;15.23;3.05;;;7.20;90.80;;;;;;9178886;19;20029;-69
2023/11/25 10:50:53;;;;;;;13.75;1.80;;;7.10;90.70;;;;;;9178177;19;20014;-68
2023/11/25 10:54:01;;;;;;;14.50;1.63;;;7.30;91.10;;;;;;9175010;19;20018;-71
2023/11/25 10:57:10;;;;;;;11.15;1.63;;;7.30;90.70;;;;;;9175545;19;20388;-68
2023/11/25 11:00:21;;;;;;;15.38;2.03;;;7.30;91.10;;;;;;9177529;19;20384;-68
2023/11/25 11:03:38;;;;;;;14.35;1.98;;;7.40;91.10;;;;;;9176283;19;20070;-69
2023/11/25 11:06:50;;;;;;;9.40;1.67;;;7.40;91.10;;;;;;9177441;19;20022;-68
2023/11/25 11:10:00;;;;;;;8.02;1.60;;;7.50;91.10;;;;;;9176747;19;20052;-68
2023/11/25 11:13:12;;;;;;;10.00;1.38;;;7.50;91.00;;;;;;9177091;19;20011;-68
2023/11/25 11:16:29;;;;;;;17.63;1.90;;;7.60;91.10;;;;;;9172461;19;20025;-72
2023/11/25 11:19:39;;;;;;;7.32;1.77;;;7.60;91.00;;;;;;9175874;19;20484;-69
2023/11/25 11:22:45;;;;;;;9.93;1.33;;;7.70;91.00;;;;;;9175827;19;20484;-70
2023/11/25 11:26:01;;;;;;;13.40;2.13;;;7.70;91.00;;;;;;9176229;19;20018;-69
2023/11/25 11:29:18;;;;;;;5.15;1.40;;;7.70;91.00;;;;;;9176382;19;20413;-68
2023/11/25 11:32:35;;;;;;;7.18;1.20;;;7.80;91.10;;;;;;9174689;19;20022;-69
2023/11/25 11:35:43;;;;;;;12.85;1.92;;;7.80;91.10;;;;;;9170546;19;20028;-70
2023/11/25 11:38:52;;;;;;;12.02;1.95;;;7.80;91.30;;;;;;9171555;19;20029;-70
2023/11/25 11:41:58;;;;;;;7.43;1.25;;;7.90;91.10;;;;;;9172371;19;20021;-68
2023/11/25 11:45:19;;;;;;;5.60;1.40;;;7.90;91.30;;;;;;9169911;19;20022;-68
2023/11/25 11:48:29;;;;;;;9.00;1.20;;;7.90;91.80;;;;;;9173876;19;20014;-68
2023/11/25 11:51:37;;;;;;;11.05;1.98;;;7.80;89.50;;;;;;9174989;19;20022;-69
2023/11/25 11:54:42;;;;;;;11.35;1.67;;;7.90;89.40;;;;;;9175203;19;20044;-68
2023/11/25 11:58:06;;;;;;;13.85;2.15;;;7.80;89.10;;;;;;9173178;19;20495;-68
2023/11/25 12:01:11;;;;;;;5.90;1.42;;;8.00;89.50;;;;;;9174837;19;20382;-68
2023/11/25 12:04:21;;;;;;;10.48;2.00;;;8.00;89.30;;;;;;9170590;19;20010;-69
2023/11/25 12:07:27;;;;;;;8.93;1.50;;;8.00;89.60;;;;;;9173307;19;20025;-69
2023/11/25 12:10:35;;;;;;;11.43;1.92;;;8.00;89.20;;;;;;9173581;19;20123;-69
2023/11/25 12:13:42;;;;;;;8.90;1.83;;;8.00;89.40;;;;;;9172985;19;20408;-69
2023/11/25 12:16:50;;;;;;;12.73;1.60;;;8.10;89.50;;;;;;9173083;19;20459;-76
2023/11/25 12:19:59;;;;;;;13.43;1.77;;;8.10;90.00;;;;;;9173395;19;20003;-76
2023/11/25 12:23:09;;;;;;;9.18;2.00;;;8.20;89.90;;;;;;9174068;19;20033;-77
2023/11/25 12:26:15;;;;;;;11.30;1.95;;;8.30;89.40;;;;;;9173236;19;20010;-75
2023/11/25 12:29:23;;;;;;;16.15;2.67;;;8.20;89.10;;;;;;9176331;19;20025;-76
2023/11/25 12:32:29;;;;;;;10.98;1.85;;;8.20;89.40;;;;;;9182069;19;20018;-78
2023/11/25 12:35:43;;;;;;;12.88;2.42;;;8.20;89.10;;;;;;9181707;19;20355;-79
2023/11/25 12:38:49;;;;;;;11.70;1.98;;;8.20;89.30;;;;;;9181237;19;20388;-79
2023/11/25 12:41:56;;;;;;;12.75;2.75;;;8.40;89.60;;;;;;9183173;19;20026;-75
2023/11/25 12:45:05;;;;;;;15.10;2.47;;;8.30;89.00;;;;;;9175477;19;20010;-79
2023/11/25 12:48:19;;;;;;;13.20;2.28;;;8.30;89.50;;;;;;9178866;19;20090;-79
2023/11/25 12:51:27;;;;;;;10.25;1.58;;;8.30;88.90;;;;;;9184523;19;20010;-76
2023/11/25 12:54:46;;;;;;;19.65;4.03;;;8.30;88.70;;;;;;9177488;19;20436;-72
2023/11/25 12:57:52;;;;;;;11.00;1.77;;;8.40;88.60;;;;;;9170500;19;20017;-70
2023/11/25 13:01:00;;;;;;;18.92;1.88;;;8.40;89.10;;;;;;9172345;19;20021;-72
2023/11/25 13:04:06;;;;;;;12.73;1.70;;;8.50;89.00;;;;;;9169428;19;20015;-76
2023/11/25 13:07:37;;;;;;;11.52;2.38;;;8.40;89.20;;;;;;9170027;19;20091;-74
2023/11/25 13:10:42;;;;;;;12.88;1.42;;;8.50;89.00;;;;;;9172601;19;20018;-74
2023/11/25 13:13:50;;;;;;;8.27;1.63;;;8.50;89.10;;;;;;9172613;19;20018;-75
2023/11/25 13:16:56;;;;;;;8.95;1.50;;;8.40;89.50;;;;;;9170599;19;20013;-74
2023/11/25 13:20:03;;;;;;;8.68;1.90;;;8.40;88.60;;;;;;9171106;19;20018;-76
2023/11/25 13:23:13;;;;;;;4.07;0.80;;;8.50;89.30;;;;;;9171381;19;20083;-72
2023/11/25 13:26:20;;;;;;;4.97;1.02;;;8.50;89.00;;;;;;9172468;19;20022;-72
2023/11/25 13:29:26;;;;;;;3.53;0.80;;;8.40;88.90;;;;;;9171499;19;20007;-74
2023/11/25 13:32:33;;;;;;;3.00;0.65;;;8.40;88.90;;;;;;9168347;19;20490;-74
2023/11/25 13:35:39;;;;;;;2.55;0.93;;;8.50;88.60;;;;;;9171042;19;20018;-72
2023/11/25 13:38:49;;;;;;;2.20;0.80;;;8.50;88.80;;;;;;9169683;19;20019;-74
2023/11/25 13:41:55;;;;;;;3.47;0.98;;;8.40;88.80;;;;;;9170770;19;20010;-74
2023/11/25 13:45:02;;;;;;;3.75;0.88;;;8.30;88.70;;;;;;9167295;19;20023;-75
2023/11/25 13:48:08;;;;;;;4.80;0.80;;;8.30;89.10;;;;;;9170928;19;20007;-73
2023/11/25 13:51:15;;;;;;;5.60;1.05;;;8.60;88.50;;;;;;9169725;19;20011;-73
2023/11/25 13:54:24;;;;;;;2.17;1.25;;;8.20;88.50;;;;;;9170819;19;20527;-74
2023/11/25 13:57:32;;;;;;;1.30;0.68;;;8.20;88.10;;;;;;9168819;19;20022;-72
2023/11/25 14:00:37;;;;;;;5.65;1.15;;;8.10;88.40;;;;;;9177558;19;20019;-72
2023/11/25 14:03:45;;;;;;;3.72;0.90;;;8.10;88.40;;;;;;9176144;19;20014;-73
2023/11/25 14:06:50;;;;;;;3.17;0.77;;;8.20;88.70;;;;;;9179352;19;20023;-72
2023/11/25 14:10:01;;;;;;;2.85;0.70;;;8.00;88.80;;;;;;9177559;19;20665;-75
2023/11/25 14:13:07;;;;;;;7.18;1.33;;;8.00;88.70;;;;;;9180870;19;20877;-74
2023/11/25 14:16:17;;;;;;;2.22;0.80;;;8.00;88.60;;;;;;9178321;19;20025;-72
2023/11/25 14:19:22;;;;;;;8.57;2.33;;;8.00;88.90;;;;;;9180387;19;20014;-74
2023/11/25 14:22:30;;;;;;;6.40;2.55;;;7.90;89.00;;;;;;9179893;19;20018;-75
2023/11/25 14:25:39;;;;;;;4.07;1.45;;;7.90;88.60;;;;;;9178153;19;20532;-74
2023/11/25 14:28:46;;;;;;;1.95;1.30;;;7.80;88.70;;;;;;9178706;19;20019;-74
2023/11/25 14:31:52;;;;;;;2.38;0.82;;;7.90;89.00;;;;;;9179001;19;20475;-74
2023/11/25 14:34:59;;;;;;;2.65;1.17;;;7.80;89.10;;;;;;9178596;19;20010;-74
2023/11/25 14:38:06;;;;;;;5.50;1.05;;;7.80;89.30;;;;;;9176528;19;20495;-76
2023/11/25 14:41:22;;;;;;;3.28;0.90;;;7.80;89.10;;;;;;9176741;19;20368;-73
2023/11/25 14:44:35;;;;;;;3.83;0.90;;;7.80;88.80;;;;;;9173401;19;20014;-76
2023/11/25 14:47:47;;;;;;;5.43;1.23;;;7.70;89.20;;;;;;9178349;19;20018;-74
2023/11/25 14:50:54;;;;;;;6.78;1.70;;;7.70;89.40;;;;;;9177505;19;20018;-74
2023/11/25 14:54:02;;;;;;;17.20;3.97;;;7.70;88.90;;;;;;9176542;19;20011;-74
2023/11/25 14:57:10;;;;;;;18.52;4.35;;;7.70;89.10;;;;;;9175706;19;20021;-73
2023/11/25 15:00:18;;;;;;;14.40;3.97;;;7.70;89.40;;;;;;9173965;19;20014;-74
2023/11/25 15:03:27;;;;;;;10.20;2.53;;;7.60;88.90;;;;;;9175500;19;20018;-76
2023/11/25 15:06:35;;;;;;;5.28;2.30;;;7.60;89.20;;;;;;9176825;19;20015;-74
2023/11/25 15:09:48;;;;;;;6.75;2.67;;;7.60;89.40;;;;;;9175008;19;20061;-75
2023/11/25 15:13:01;;;;;;;4.55;1.90;;;7.60;89.60;;;;;;9173782;19;20014;-74
2023/11/25 15:16:09;;;;;;;8.20;2.05;;;7.50;89.60;;;;;;9176585;19;20015;-75
2023/11/25 15:19:16;;;;;;;7.75;1.80;;;7.50;89.60;;;;;;9176800;19;20010;-75
2023/11/25 15:22:22;;;;;;;7.25;2.88;;;7.50;89.80;;;;;;9176762;19;20015;-74
2023/11/25 15:25:31;;;;;;;9.48;2.78;;;7.50;89.40;;;;;;9175193;19;20023;-74
2023/11/25 15:28:40;;;;;;;7.38;3.17;;;7.20;89.40;;;;;;9170388;19;20519;-77
2023/11/25 15:31:48;;;;;;;9.23;2.33;;;7.40;89.60;;;;;;9173960;19;20022;-75
2023/11/25 15:34:54;;;;;;;6.20;1.40;;;7.50;89.10;;;;;;9173258;19;20022;-76
2023/11/25 15:38:02;;;;;;;4.68;1.60;;;7.30;89.50;;;;;;9173669;19;20018;-74
2023/11/25 15:41:09;;;;;;;7.18;1.70;;;7.30;90.00;;;;;;9175388;19;20022;-75
2023/11/25 15:44:19;;;;;;;7.80;2.15;;;7.30;90.10;;;;;;9171030;19;20022;-75
2023/11/25 15:47:25;;;;;;;4.47;1.85;;;7.20;90.00;;;;;;9175697;19;20459;-75
2023/11/25 15:50:32;;;;;;;8.50;2.20;;;7.20;89.50;;;;;;9175375;19;20530;-73
2023/11/25 15:53:38;;;;;;;9.60;2.38;;;7.20;90.00;;;;;;9172861;19;20014;-74
2023/11/25 15:56:46;;;;;;;8.30;2.88;;;7.10;89.80;;;;;;9173584;19;20391;-75
2023/11/25 15:59:54;;;;;;;12.93;3.05;;;7.10;90.30;;;;;;9175265;19;20018;-76
2023/11/25 16:03:01;;;;;;;6.97;2.50;;;7.00;90.00;;;;;;9174023;19;20733;-74
2023/11/25 16:06:10;;;;;;;7.95;2.85;;;7.10;90.00;;;;;;9174792;19;20430;-75
2023/11/25 16:09:18;;;;;;;5.85;2.17;;;7.00;90.00;;;;;;9175856;19;20019;-76
2023/11/25 16:12:24;;;;;;;5.82;1.90;;;7.00;90.20;;;;;;9174924;19;20019;-72
2023/11/25 16:15:38;;;;;;;8.93;2.05;;;7.10;90.20;;;;;;9174339;19;20797;-74
2023/11/25 16:18:44;;;;;;;3.05;1.50;;;7.10;90.60;;;;;;9172324;19;20050;-73
2023/11/25 16:21:54;;;;;;;9.50;2.30;;;7.00;91.50;;;;;;9172341;19;20026;-74
2023/11/25 16:25:00;;;;;;;5.57;3.00;;;7.10;92.60;;;;;;9174284;19;20105;-74
2023/11/25 16:28:08;;;;;;;10.48;2.50;;;7.10;92.00;;;;;;9174602;19;20025;-73